Terminal Aerodrome Forecast
Issued by NWS

Home | Current Version | Previous Version | Text Only | Print | Product List | Glossary Off
Versions: 1 2 3 4 5 6 7 8 9 10 11 12 13 14 15 16 17 18 19 20

000
FTUS43 KMPX 231743
TAFRNH
TAF
KRNH 231743Z 2318/2418 34005KT P6SM VCSH SCT060 OVC090
      TEMPO 2318/2321 -SHRA
     FM232100 02006KT P6SM OVC080
     FM232300 10007KT P6SM SCT050 OVC070
     FM241400 13008KT 6SM -RA BR OVC035=

USA.gov is the U.S. government's official web portal to all federal, state and local government web resources and services.